sensor_id;sensor_type;location;lat;lon;timestamp;temperature;humidity
76172;DHT22;64929;51.178;4.138;2023-07-31T00:00:49;17.70;94.90
76172;DHT22;64929;51.178;4.138;2023-07-31T00:03:15;17.60;94.50
76172;DHT22;64929;51.178;4.138;2023-07-31T00:05:40;17.50;95.30
76172;DHT22;64929;51.178;4.138;2023-07-31T00:08:06;17.50;95.70
76172;DHT22;64929;51.178;4.138;2023-07-31T00:10:32;17.50;95.70
76172;DHT22;64929;51.178;4.138;2023-07-31T00:12:59;17.70;95.40
76172;DHT22;64929;51.178;4.138;2023-07-31T00:15:24;17.70;94.80
76172;DHT22;64929;51.178;4.138;2023-07-31T00:17:50;17.80;94.90
76172;DHT22;64929;51.178;4.138;2023-07-31T00:20:15;17.90;94.70
76172;DHT22;64929;51.178;4.138;2023-07-31T00:22:41;17.60;94.50
76172;DHT22;64929;51.178;4.138;2023-07-31T00:25:07;17.50;95.00
76172;DHT22;64929;51.178;4.138;2023-07-31T00:27:33;17.60;94.90
76172;DHT22;64929;51.178;4.138;2023-07-31T00:29:58;17.60;94.90
76172;DHT22;64929;51.178;4.138;2023-07-31T00:32:24;17.60;95.00
76172;DHT22;64929;51.178;4.138;2023-07-31T00:34:50;17.70;94.40
76172;DHT22;64929;51.178;4.138;2023-07-31T00:37:16;17.70;94.40
76172;DHT22;64929;51.178;4.138;2023-07-31T00:39:41;17.70;94.30
76172;DHT22;64929;51.178;4.138;2023-07-31T00:42:07;17.60;94.40
76172;DHT22;64929;51.178;4.138;2023-07-31T00:44:33;17.60;94.50
76172;DHT22;64929;51.178;4.138;2023-07-31T00:46:59;17.60;94.10
76172;DHT22;64929;51.178;4.138;2023-07-31T00:49:26;17.60;94.40
76172;DHT22;64929;51.178;4.138;2023-07-31T00:51:52;17.60;94.50
76172;DHT22;64929;51.178;4.138;2023-07-31T00:54:18;17.70;94.20
76172;DHT22;64929;51.178;4.138;2023-07-31T00:56:45;17.70;93.90
76172;DHT22;64929;51.178;4.138;2023-07-31T00:59:13;17.80;93.80
76172;DHT22;64929;51.178;4.138;2023-07-31T01:01:40;17.60;94.20
76172;DHT22;64929;51.178;4.138;2023-07-31T01:04:06;17.60;94.20
76172;DHT22;64929;51.178;4.138;2023-07-31T01:06:44;17.60;94.30
76172;DHT22;64929;51.178;4.138;2023-07-31T01:09:11;17.60;94.00
76172;DHT22;64929;51.178;4.138;2023-07-31T01:11:57;17.60;94.30
76172;DHT22;64929;51.178;4.138;2023-07-31T01:14:23;17.50;94.20
76172;DHT22;64929;51.178;4.138;2023-07-31T01:16:49;17.60;93.80
76172;DHT22;64929;51.178;4.138;2023-07-31T01:19:15;17.80;93.60
76172;DHT22;64929;51.178;4.138;2023-07-31T01:24:30;17.70;93.80
76172;DHT22;64929;51.178;4.138;2023-07-31T01:27:12;17.60;93.70
76172;DHT22;64929;51.178;4.138;2023-07-31T01:29:52;17.60;93.90
76172;DHT22;64929;51.178;4.138;2023-07-31T01:32:22;17.70;93.80
76172;DHT22;64929;51.178;4.138;2023-07-31T01:34:48;17.80;93.30
76172;DHT22;64929;51.178;4.138;2023-07-31T01:37:15;17.80;93.20
76172;DHT22;64929;51.178;4.138;2023-07-31T01:39:40;17.80;93.20
76172;DHT22;64929;51.178;4.138;2023-07-31T01:42:06;17.70;93.80
76172;DHT22;64929;51.178;4.138;2023-07-31T01:44:33;17.80;93.50
76172;DHT22;64929;51.178;4.138;2023-07-31T01:46:58;17.80;93.30
76172;DHT22;64929;51.178;4.138;2023-07-31T01:49:25;17.80;93.50
76172;DHT22;64929;51.178;4.138;2023-07-31T01:51:51;17.70;93.90
76172;DHT22;64929;51.178;4.138;2023-07-31T01:54:17;17.70;94.00
76172;DHT22;64929;51.178;4.138;2023-07-31T01:56:42;17.70;94.30
76172;DHT22;64929;51.178;4.138;2023-07-31T01:59:08;17.70;94.20
76172;DHT22;64929;51.178;4.138;2023-07-31T02:01:34;17.70;93.80
76172;DHT22;64929;51.178;4.138;2023-07-31T02:03:59;17.70;94.30
76172;DHT22;64929;51.178;4.138;2023-07-31T02:06:25;17.60;94.50
76172;DHT22;64929;51.178;4.138;2023-07-31T02:08:51;17.70;94.30
76172;DHT22;64929;51.178;4.138;2023-07-31T02:11:16;17.70;94.30
76172;DHT22;64929;51.178;4.138;2023-07-31T02:13:42;17.60;94.00
76172;DHT22;64929;51.178;4.138;2023-07-31T02:16:08;17.70;94.30
76172;DHT22;64929;51.178;4.138;2023-07-31T02:18:33;17.70;94.40
76172;DHT22;64929;51.178;4.138;2023-07-31T02:20:59;17.60;94.90
76172;DHT22;64929;51.178;4.138;2023-07-31T02:23:25;17.70;94.00
76172;DHT22;64929;51.178;4.138;2023-07-31T02:25:50;17.80;93.90
76172;DHT22;64929;51.178;4.138;2023-07-31T02:28:16;17.80;93.80
76172;DHT22;64929;51.178;4.138;2023-07-31T02:30:44;17.80;94.10
76172;DHT22;64929;51.178;4.138;2023-07-31T02:33:11;17.70;94.20
76172;DHT22;64929;51.178;4.138;2023-07-31T02:35:37;17.80;94.10
76172;DHT22;64929;51.178;4.138;2023-07-31T02:38:03;17.90;93.70
76172;DHT22;64929;51.178;4.138;2023-07-31T02:40:28;17.90;94.10
76172;DHT22;64929;51.178;4.138;2023-07-31T02:42:54;17.90;93.80
76172;DHT22;64929;51.178;4.138;2023-07-31T02:45:20;17.90;93.80
76172;DHT22;64929;51.178;4.138;2023-07-31T02:47:45;17.80;93.80
76172;DHT22;64929;51.178;4.138;2023-07-31T02:50:11;17.80;93.90
76172;DHT22;64929;51.178;4.138;2023-07-31T02:52:37;17.90;94.00
76172;DHT22;64929;51.178;4.138;2023-07-31T02:55:02;17.90;94.10
76172;DHT22;64929;51.178;4.138;2023-07-31T02:57:28;17.90;93.80
76172;DHT22;64929;51.178;4.138;2023-07-31T02:59:54;17.90;94.10
76172;DHT22;64929;51.178;4.138;2023-07-31T03:02:20;17.90;94.10
76172;DHT22;64929;51.178;4.138;2023-07-31T03:04:45;18.00;94.20
76172;DHT22;64929;51.178;4.138;2023-07-31T03:07:11;18.10;94.00
76172;DHT22;64929;51.178;4.138;2023-07-31T03:09:37;18.10;93.90
76172;DHT22;64929;51.178;4.138;2023-07-31T03:12:02;18.00;94.10
76172;DHT22;64929;51.178;4.138;2023-07-31T03:14:28;18.00;94.50
76172;DHT22;64929;51.178;4.138;2023-07-31T03:16:54;18.10;94.40
76172;DHT22;64929;51.178;4.138;2023-07-31T03:19:20;18.00;94.60
76172;DHT22;64929;51.178;4.138;2023-07-31T03:21:46;17.90;94.90
76172;DHT22;64929;51.178;4.138;2023-07-31T03:24:11;17.80;95.20
76172;DHT22;64929;51.178;4.138;2023-07-31T03:26:37;17.80;95.70
76172;DHT22;64929;51.178;4.138;2023-07-31T03:29:03;17.90;95.40
76172;DHT22;64929;51.178;4.138;2023-07-31T03:31:29;17.90;95.60
76172;DHT22;64929;51.178;4.138;2023-07-31T03:33:55;17.90;95.60
76172;DHT22;64929;51.178;4.138;2023-07-31T03:36:20;17.90;96.00
76172;DHT22;64929;51.178;4.138;2023-07-31T03:38:46;17.80;96.00
76172;DHT22;64929;51.178;4.138;2023-07-31T03:41:12;17.80;96.10
76172;DHT22;64929;51.178;4.138;2023-07-31T03:43:38;17.90;96.30
76172;DHT22;64929;51.178;4.138;2023-07-31T03:46:04;18.00;96.10
76172;DHT22;64929;51.178;4.138;2023-07-31T03:48:30;17.90;96.20
76172;DHT22;64929;51.178;4.138;2023-07-31T03:50:56;17.80;96.70
76172;DHT22;64929;51.178;4.138;2023-07-31T03:53:21;17.60;96.70
76172;DHT22;64929;51.178;4.138;2023-07-31T03:55:47;17.70;97.30
76172;DHT22;64929;51.178;4.138;2023-07-31T03:58:13;17.60;97.40
76172;DHT22;64929;51.178;4.138;2023-07-31T04:00:40;17.60;97.50
76172;DHT22;64929;51.178;4.138;2023-07-31T04:03:06;17.50;97.60
76172;DHT22;64929;51.178;4.138;2023-07-31T04:05:32;17.40;97.90
76172;DHT22;64929;51.178;4.138;2023-07-31T04:07:58;17.30;98.20
76172;DHT22;64929;51.178;4.138;2023-07-31T04:10:24;17.40;98.40
76172;DHT22;64929;51.178;4.138;2023-07-31T04:12:49;17.30;98.70
76172;DHT22;64929;51.178;4.138;2023-07-31T04:15:15;17.40;98.50
76172;DHT22;64929;51.178;4.138;2023-07-31T04:17:41;17.30;98.70
76172;DHT22;64929;51.178;4.138;2023-07-31T04:20:07;17.20;98.90
76172;DHT22;64929;51.178;4.138;2023-07-31T04:22:33;17.30;99.00
76172;DHT22;64929;51.178;4.138;2023-07-31T04:24:58;17.30;99.00
76172;DHT22;64929;51.178;4.138;2023-07-31T04:27:25;17.30;99.10
76172;DHT22;64929;51.178;4.138;2023-07-31T04:29:50;17.40;99.00
76172;DHT22;64929;51.178;4.138;2023-07-31T04:32:16;17.40;98.90
76172;DHT22;64929;51.178;4.138;2023-07-31T04:34:42;17.40;99.10
76172;DHT22;64929;51.178;4.138;2023-07-31T04:37:08;17.30;99.20
76172;DHT22;64929;51.178;4.138;2023-07-31T04:39:34;17.20;99.40
76172;DHT22;64929;51.178;4.138;2023-07-31T04:41:59;17.30;99.50
76172;DHT22;64929;51.178;4.138;2023-07-31T04:44:25;17.10;99.70
76172;DHT22;64929;51.178;4.138;2023-07-31T04:46:51;17.20;99.80
76172;DHT22;64929;51.178;4.138;2023-07-31T04:49:16;17.20;99.80
76172;DHT22;64929;51.178;4.138;2023-07-31T04:51:42;17.20;99.80
76172;DHT22;64929;51.178;4.138;2023-07-31T04:54:08;17.30;99.60
76172;DHT22;64929;51.178;4.138;2023-07-31T04:56:33;17.40;99.30
76172;DHT22;64929;51.178;4.138;2023-07-31T04:58:59;17.20;99.50
76172;DHT22;64929;51.178;4.138;2023-07-31T05:01:25;17.10;99.90
76172;DHT22;64929;51.178;4.138;2023-07-31T05:03:51;17.10;99.90
76172;DHT22;64929;51.178;4.138;2023-07-31T05:06:16;17.10;99.80
76172;DHT22;64929;51.178;4.138;2023-07-31T05:08:42;17.00;99.90
76172;DHT22;64929;51.178;4.138;2023-07-31T05:11:08;16.90;99.90
76172;DHT22;64929;51.178;4.138;2023-07-31T05:13:33;16.90;99.90
76172;DHT22;64929;51.178;4.138;2023-07-31T05:15:59;16.90;99.90
76172;DHT22;64929;51.178;4.138;2023-07-31T05:18:25;17.00;99.90
76172;DHT22;64929;51.178;4.138;2023-07-31T05:20:50;17.10;99.90
76172;DHT22;64929;51.178;4.138;2023-07-31T05:23:16;17.20;99.90
76172;DHT22;64929;51.178;4.138;2023-07-31T05:25:41;17.10;99.90
76172;DHT22;64929;51.178;4.138;2023-07-31T05:28:07;17.10;99.90
76172;DHT22;64929;51.178;4.138;2023-07-31T05:30:33;17.00;99.90
76172;DHT22;64929;51.178;4.138;2023-07-31T05:32:59;17.10;99.90
76172;DHT22;64929;51.178;4.138;2023-07-31T05:35:24;17.10;99.90
76172;DHT22;64929;51.178;4.138;2023-07-31T05:37:50;17.30;99.90
76172;DHT22;64929;51.178;4.138;2023-07-31T05:40:16;17.30;99.90
76172;DHT22;64929;51.178;4.138;2023-07-31T05:42:42;17.30;99.90
76172;DHT22;64929;51.178;4.138;2023-07-31T05:45:07;17.30;99.90
76172;DHT22;64929;51.178;4.138;2023-07-31T05:47:33;17.40;99.90
76172;DHT22;64929;51.178;4.138;2023-07-31T05:49:59;17.40;99.90
76172;DHT22;64929;51.178;4.138;2023-07-31T05:52:25;17.40;99.90
76172;DHT22;64929;51.178;4.138;2023-07-31T05:54:51;17.30;99.90
76172;DHT22;64929;51.178;4.138;2023-07-31T05:57:17;17.30;99.90
76172;DHT22;64929;51.178;4.138;2023-07-31T05:59:43;17.40;99.90
76172;DHT22;64929;51.178;4.138;2023-07-31T06:02:08;17.40;99.80
76172;DHT22;64929;51.178;4.138;2023-07-31T06:04:34;17.50;99.80
76172;DHT22;64929;51.178;4.138;2023-07-31T06:07:00;17.40;99.90
76172;DHT22;64929;51.178;4.138;2023-07-31T06:09:25;17.40;99.70
76172;DHT22;64929;51.178;4.138;2023-07-31T06:11:51;17.50;99.90
76172;DHT22;64929;51.178;4.138;2023-07-31T06:14:17;17.40;99.90
76172;DHT22;64929;51.178;4.138;2023-07-31T06:16:44;17.40;99.90
76172;DHT22;64929;51.178;4.138;2023-07-31T06:19:10;17.50;99.90
76172;DHT22;64929;51.178;4.138;2023-07-31T06:21:36;17.50;99.70
76172;DHT22;64929;51.178;4.138;2023-07-31T06:24:07;17.50;99.80
76172;DHT22;64929;51.178;4.138;2023-07-31T06:26:33;17.40;99.90
76172;DHT22;64929;51.178;4.138;2023-07-31T06:28:59;17.30;99.90
76172;DHT22;64929;51.178;4.138;2023-07-31T06:31:24;17.40;99.90
76172;DHT22;64929;51.178;4.138;2023-07-31T06:33:51;17.40;99.90
76172;DHT22;64929;51.178;4.138;2023-07-31T06:36:18;17.40;99.80
76172;DHT22;64929;51.178;4.138;2023-07-31T06:38:44;17.50;99.90
76172;DHT22;64929;51.178;4.138;2023-07-31T06:41:09;17.50;99.90
76172;DHT22;64929;51.178;4.138;2023-07-31T06:43:36;17.60;99.40
76172;DHT22;64929;51.178;4.138;2023-07-31T06:46:08;17.50;99.70
76172;DHT22;64929;51.178;4.138;2023-07-31T06:48:35;17.50;99.80
76172;DHT22;64929;51.178;4.138;2023-07-31T06:51:02;17.40;99.90
76172;DHT22;64929;51.178;4.138;2023-07-31T06:53:28;17.50;99.90
76172;DHT22;64929;51.178;4.138;2023-07-31T06:55:54;17.60;99.90
76172;DHT22;64929;51.178;4.138;2023-07-31T06:58:20;17.60;99.90
76172;DHT22;64929;51.178;4.138;2023-07-31T07:00:45;17.50;99.30
76172;DHT22;64929;51.178;4.138;2023-07-31T07:03:11;17.50;99.70
76172;DHT22;64929;51.178;4.138;2023-07-31T07:05:40;17.40;99.60
76172;DHT22;64929;51.178;4.138;2023-07-31T07:08:06;17.50;99.60
76172;DHT22;64929;51.178;4.138;2023-07-31T07:10:31;17.50;99.50
76172;DHT22;64929;51.178;4.138;2023-07-31T07:12:57;17.50;99.40
76172;DHT22;64929;51.178;4.138;2023-07-31T07:15:23;17.60;99.50
76172;DHT22;64929;51.178;4.138;2023-07-31T07:17:48;17.60;99.40
76172;DHT22;64929;51.178;4.138;2023-07-31T07:20:14;17.60;99.20
76172;DHT22;64929;51.178;4.138;2023-07-31T07:22:40;17.60;99.20
76172;DHT22;64929;51.178;4.138;2023-07-31T07:25:08;17.70;98.90
76172;DHT22;64929;51.178;4.138;2023-07-31T07:27:34;17.70;98.80
76172;DHT22;64929;51.178;4.138;2023-07-31T07:30:00;17.60;98.90
76172;DHT22;64929;51.178;4.138;2023-07-31T07:32:26;17.70;98.80
76172;DHT22;64929;51.178;4.138;2023-07-31T07:34:52;17.70;98.70
76172;DHT22;64929;51.178;4.138;2023-07-31T07:37:18;17.80;98.50
76172;DHT22;64929;51.178;4.138;2023-07-31T07:39:44;17.80;98.70
76172;DHT22;64929;51.178;4.138;2023-07-31T07:42:09;17.90;98.50
76172;DHT22;64929;51.178;4.138;2023-07-31T07:44:35;18.00;98.20
76172;DHT22;64929;51.178;4.138;2023-07-31T07:47:01;18.00;97.90
76172;DHT22;64929;51.178;4.138;2023-07-31T07:49:26;17.90;97.90
76172;DHT22;64929;51.178;4.138;2023-07-31T07:51:52;18.10;98.30
76172;DHT22;64929;51.178;4.138;2023-07-31T07:54:17;18.30;98.20
76172;DHT22;64929;51.178;4.138;2023-07-31T07:56:44;18.30;97.50
76172;DHT22;64929;51.178;4.138;2023-07-31T07:59:10;18.50;97.60
76172;DHT22;64929;51.178;4.138;2023-07-31T08:01:36;18.60;97.30
76172;DHT22;64929;51.178;4.138;2023-07-31T08:04:01;18.60;97.10
76172;DHT22;64929;51.178;4.138;2023-07-31T08:06:27;18.70;96.70
76172;DHT22;64929;51.178;4.138;2023-07-31T08:08:55;18.50;97.00
76172;DHT22;64929;51.178;4.138;2023-07-31T08:11:20;18.40;96.90
76172;DHT22;64929;51.178;4.138;2023-07-31T08:13:48;18.60;97.20
76172;DHT22;64929;51.178;4.138;2023-07-31T08:16:14;18.60;96.70
76172;DHT22;64929;51.178;4.138;2023-07-31T08:18:39;18.50;97.00
76172;DHT22;64929;51.178;4.138;2023-07-31T08:21:05;18.60;97.30
76172;DHT22;64929;51.178;4.138;2023-07-31T08:23:31;18.40;96.90
76172;DHT22;64929;51.178;4.138;2023-07-31T08:25:57;18.40;96.90
76172;DHT22;64929;51.178;4.138;2023-07-31T08:28:22;18.40;97.10
76172;DHT22;64929;51.178;4.138;2023-07-31T08:30:48;18.60;96.90
76172;DHT22;64929;51.178;4.138;2023-07-31T08:33:15;18.60;96.80
76172;DHT22;64929;51.178;4.138;2023-07-31T08:35:42;18.50;96.70
76172;DHT22;64929;51.178;4.138;2023-07-31T08:38:07;18.30;96.80
76172;DHT22;64929;51.178;4.138;2023-07-31T08:40:36;18.40;96.90
76172;DHT22;64929;51.178;4.138;2023-07-31T08:43:03;18.60;97.20
76172;DHT22;64929;51.178;4.138;2023-07-31T08:45:30;18.60;96.50
76172;DHT22;64929;51.178;4.138;2023-07-31T08:47:56;18.60;96.30
76172;DHT22;64929;51.178;4.138;2023-07-31T08:50:25;18.60;96.50
76172;DHT22;64929;51.178;4.138;2023-07-31T08:52:52;18.70;96.60
76172;DHT22;64929;51.178;4.138;2023-07-31T08:55:18;19.00;96.90
76172;DHT22;64929;51.178;4.138;2023-07-31T08:57:49;18.90;96.00
76172;DHT22;64929;51.178;4.138;2023-07-31T09:00:16;19.10;95.90
76172;DHT22;64929;51.178;4.138;2023-07-31T09:05:11;19.00;95.60
76172;DHT22;64929;51.178;4.138;2023-07-31T09:07:38;19.00;95.90
76172;DHT22;64929;51.178;4.138;2023-07-31T09:10:04;19.20;95.60
76172;DHT22;64929;51.178;4.138;2023-07-31T09:12:31;19.20;95.80
76172;DHT22;64929;51.178;4.138;2023-07-31T09:14:58;19.50;95.30
76172;DHT22;64929;51.178;4.138;2023-07-31T09:17:33;19.60;95.30
76172;DHT22;64929;51.178;4.138;2023-07-31T09:20:20;19.70;94.80
76172;DHT22;64929;51.178;4.138;2023-07-31T09:22:47;19.80;94.30
76172;DHT22;64929;51.178;4.138;2023-07-31T09:27:58;19.70;94.50
76172;DHT22;64929;51.178;4.138;2023-07-31T09:30:25;19.70;94.40
76172;DHT22;64929;51.178;4.138;2023-07-31T09:32:52;19.70;95.00
76172;DHT22;64929;51.178;4.138;2023-07-31T09:35:32;19.60;95.10
76172;DHT22;64929;51.178;4.138;2023-07-31T09:38:04;19.90;94.80
76172;DHT22;64929;51.178;4.138;2023-07-31T09:40:33;19.80;94.10
76172;DHT22;64929;51.178;4.138;2023-07-31T09:43:12;19.80;94.90
76172;DHT22;64929;51.178;4.138;2023-07-31T09:45:42;19.80;95.10
76172;DHT22;64929;51.178;4.138;2023-07-31T09:48:10;19.70;95.20
76172;DHT22;64929;51.178;4.138;2023-07-31T09:50:40;19.60;95.30
76172;DHT22;64929;51.178;4.138;2023-07-31T09:53:07;19.60;95.30
76172;DHT22;64929;51.178;4.138;2023-07-31T09:55:33;19.60;95.70
76172;DHT22;64929;51.178;4.138;2023-07-31T09:58:00;19.70;95.60
76172;DHT22;64929;51.178;4.138;2023-07-31T10:00:29;19.70;95.10
76172;DHT22;64929;51.178;4.138;2023-07-31T10:02:58;19.60;95.80
76172;DHT22;64929;51.178;4.138;2023-07-31T10:05:30;19.70;95.90
76172;DHT22;64929;51.178;4.138;2023-07-31T10:07:57;19.70;95.40
76172;DHT22;64929;51.178;4.138;2023-07-31T10:10:23;19.60;95.60
76172;DHT22;64929;51.178;4.138;2023-07-31T10:12:52;19.70;96.20
76172;DHT22;64929;51.178;4.138;2023-07-31T10:15:18;19.70;95.30
76172;DHT22;64929;51.178;4.138;2023-07-31T10:17:45;19.70;95.80
76172;DHT22;64929;51.178;4.138;2023-07-31T10:20:12;19.50;95.90
76172;DHT22;64929;51.178;4.138;2023-07-31T10:22:38;19.30;96.30
76172;DHT22;64929;51.178;4.138;2023-07-31T10:25:05;19.10;96.80
76172;DHT22;64929;51.178;4.138;2023-07-31T10:27:35;19.00;97.00
76172;DHT22;64929;51.178;4.138;2023-07-31T10:30:03;19.20;97.40
76172;DHT22;64929;51.178;4.138;2023-07-31T10:32:30;19.40;96.90
76172;DHT22;64929;51.178;4.138;2023-07-31T10:34:57;19.60;96.20
76172;DHT22;64929;51.178;4.138;2023-07-31T10:37:28;19.50;96.20
76172;DHT22;64929;51.178;4.138;2023-07-31T10:40:02;19.40;96.10
76172;DHT22;64929;51.178;4.138;2023-07-31T10:42:36;19.50;96.60
76172;DHT22;64929;51.178;4.138;2023-07-31T10:45:08;19.50;96.20
76172;DHT22;64929;51.178;4.138;2023-07-31T10:47:45;19.60;96.80
76172;DHT22;64929;51.178;4.138;2023-07-31T10:50:21;19.40;96.90
76172;DHT22;64929;51.178;4.138;2023-07-31T10:52:54;19.50;97.30
76172;DHT22;64929;51.178;4.138;2023-07-31T10:55:41;19.60;97.40
76172;DHT22;64929;51.178;4.138;2023-07-31T10:58:14;19.80;97.60
76172;DHT22;64929;51.178;4.138;2023-07-31T11:00:44;19.60;97.20
76172;DHT22;64929;51.178;4.138;2023-07-31T11:03:15;19.40;98.00
76172;DHT22;64929;51.178;4.138;2023-07-31T11:05:45;19.40;97.90
76172;DHT22;64929;51.178;4.138;2023-07-31T11:11:22;19.10;98.30
76172;DHT22;64929;51.178;4.138;2023-07-31T11:13:44;19.10;98.30
76172;DHT22;64929;51.178;4.138;2023-07-31T11:16:13;19.20;98.00
76172;DHT22;64929;51.178;4.138;2023-07-31T11:18:45;19.20;98.20
76172;DHT22;64929;51.178;4.138;2023-07-31T11:21:20;19.30;98.10
76172;DHT22;64929;51.178;4.138;2023-07-31T11:23:46;19.30;98.00
76172;DHT22;64929;51.178;4.138;2023-07-31T11:26:12;19.30;97.70
76172;DHT22;64929;51.178;4.138;2023-07-31T11:28:38;19.20;97.70
76172;DHT22;64929;51.178;4.138;2023-07-31T11:31:04;19.20;97.80
76172;DHT22;64929;51.178;4.138;2023-07-31T11:33:30;19.30;97.70
76172;DHT22;64929;51.178;4.138;2023-07-31T11:35:57;19.40;97.60
76172;DHT22;64929;51.178;4.138;2023-07-31T11:38:24;19.40;97.40
76172;DHT22;64929;51.178;4.138;2023-07-31T11:40:51;19.40;97.80
76172;DHT22;64929;51.178;4.138;2023-07-31T11:43:18;19.50;97.60
76172;DHT22;64929;51.178;4.138;2023-07-31T11:45:49;19.50;97.50
76172;DHT22;64929;51.178;4.138;2023-07-31T11:48:24;19.50;97.40
76172;DHT22;64929;51.178;4.138;2023-07-31T11:50:53;19.60;97.10
76172;DHT22;64929;51.178;4.138;2023-07-31T11:53:25;19.60;96.90
76172;DHT22;64929;51.178;4.138;2023-07-31T11:55:52;19.70;96.60
76172;DHT22;64929;51.178;4.138;2023-07-31T11:58:18;19.60;97.10
76172;DHT22;64929;51.178;4.138;2023-07-31T12:00:44;19.60;97.50
76172;DHT22;64929;51.178;4.138;2023-07-31T12:03:11;19.60;97.40
76172;DHT22;64929;51.178;4.138;2023-07-31T12:05:37;19.50;97.70
76172;DHT22;64929;51.178;4.138;2023-07-31T12:08:12;19.50;97.50
76172;DHT22;64929;51.178;4.138;2023-07-31T12:10:38;19.60;97.40
76172;DHT22;64929;51.178;4.138;2023-07-31T12:13:09;19.60;97.50
76172;DHT22;64929;51.178;4.138;2023-07-31T12:15:42;19.60;97.70
76172;DHT22;64929;51.178;4.138;2023-07-31T12:18:13;19.80;97.20
76172;DHT22;64929;51.178;4.138;2023-07-31T12:20:48;19.90;97.20
76172;DHT22;64929;51.178;4.138;2023-07-31T12:23:22;19.90;97.00
76172;DHT22;64929;51.178;4.138;2023-07-31T12:31:04;20.10;96.40
76172;DHT22;64929;51.178;4.138;2023-07-31T12:33:34;19.90;96.50
76172;DHT22;64929;51.178;4.138;2023-07-31T12:36:08;20.00;96.50
76172;DHT22;64929;51.178;4.138;2023-07-31T12:38:34;20.10;96.40
76172;DHT22;64929;51.178;4.138;2023-07-31T12:41:00;20.20;95.70
76172;DHT22;64929;51.178;4.138;2023-07-31T12:43:26;20.20;96.10
76172;DHT22;64929;51.178;4.138;2023-07-31T12:45:54;20.00;96.60
76172;DHT22;64929;51.178;4.138;2023-07-31T12:48:21;19.90;96.80
76172;DHT22;64929;51.178;4.138;2023-07-31T12:50:46;19.80;97.30
76172;DHT22;64929;51.178;4.138;2023-07-31T12:53:12;19.80;97.50
76172;DHT22;64929;51.178;4.138;2023-07-31T12:55:38;19.80;97.60
76172;DHT22;64929;51.178;4.138;2023-07-31T12:58:04;19.80;98.00
76172;DHT22;64929;51.178;4.138;2023-07-31T13:00:29;19.70;98.20
76172;DHT22;64929;51.178;4.138;2023-07-31T13:02:55;19.60;98.50
76172;DHT22;64929;51.178;4.138;2023-07-31T13:05:21;19.70;98.60
76172;DHT22;64929;51.178;4.138;2023-07-31T13:07:47;19.60;98.70
76172;DHT22;64929;51.178;4.138;2023-07-31T13:10:13;19.60;98.80
76172;DHT22;64929;51.178;4.138;2023-07-31T13:12:39;19.50;98.80
76172;DHT22;64929;51.178;4.138;2023-07-31T13:15:05;19.20;99.50
76172;DHT22;64929;51.178;4.138;2023-07-31T13:17:31;19.30;99.70
76172;DHT22;64929;51.178;4.138;2023-07-31T13:19:57;19.30;99.70
76172;DHT22;64929;51.178;4.138;2023-07-31T13:22:23;19.20;99.90
76172;DHT22;64929;51.178;4.138;2023-07-31T13:24:49;19.10;99.90
76172;DHT22;64929;51.178;4.138;2023-07-31T13:27:16;19.10;99.90
76172;DHT22;64929;51.178;4.138;2023-07-31T13:29:44;19.10;99.90
76172;DHT22;64929;51.178;4.138;2023-07-31T13:32:10;19.10;99.90
76172;DHT22;64929;51.178;4.138;2023-07-31T13:34:35;19.00;99.90
76172;DHT22;64929;51.178;4.138;2023-07-31T13:37:01;19.00;99.90
76172;DHT22;64929;51.178;4.138;2023-07-31T13:39:27;19.00;99.90
76172;DHT22;64929;51.178;4.138;2023-07-31T13:41:52;18.90;99.90
76172;DHT22;64929;51.178;4.138;2023-07-31T13:44:18;18.80;99.90
76172;DHT22;64929;51.178;4.138;2023-07-31T13:46:44;18.90;99.90
76172;DHT22;64929;51.178;4.138;2023-07-31T13:49:09;19.00;99.90
76172;DHT22;64929;51.178;4.138;2023-07-31T13:51:35;18.80;99.90
76172;DHT22;64929;51.178;4.138;2023-07-31T13:54:01;18.80;99.90
76172;DHT22;64929;51.178;4.138;2023-07-31T13:56:27;18.70;99.90
76172;DHT22;64929;51.178;4.138;2023-07-31T13:58:53;18.70;99.90
76172;DHT22;64929;51.178;4.138;2023-07-31T14:01:18;18.60;99.90
76172;DHT22;64929;51.178;4.138;2023-07-31T14:03:44;18.60;99.90
76172;DHT22;64929;51.178;4.138;2023-07-31T14:06:10;18.60;99.90
76172;DHT22;64929;51.178;4.138;2023-07-31T14:08:36;18.40;99.90
76172;DHT22;64929;51.178;4.138;2023-07-31T14:11:01;18.40;99.90
76172;DHT22;64929;51.178;4.138;2023-07-31T14:13:27;18.40;99.90
76172;DHT22;64929;51.178;4.138;2023-07-31T14:15:52;18.30;99.90
76172;DHT22;64929;51.178;4.138;2023-07-31T14:18:18;18.30;99.90
76172;DHT22;64929;51.178;4.138;2023-07-31T14:20:44;18.30;99.90
76172;DHT22;64929;51.178;4.138;2023-07-31T14:23:10;18.40;99.90
76172;DHT22;64929;51.178;4.138;2023-07-31T14:25:35;18.50;99.90
76172;DHT22;64929;51.178;4.138;2023-07-31T14:28:01;18.50;99.90
76172;DHT22;64929;51.178;4.138;2023-07-31T14:30:27;18.50;99.90
76172;DHT22;64929;51.178;4.138;2023-07-31T14:32:53;18.50;99.90
76172;DHT22;64929;51.178;4.138;2023-07-31T14:35:19;18.40;99.90
76172;DHT22;64929;51.178;4.138;2023-07-31T14:37:45;18.40;99.90
76172;DHT22;64929;51.178;4.138;2023-07-31T14:40:12;18.50;99.90
76172;DHT22;64929;51.178;4.138;2023-07-31T14:42:39;18.50;99.90
76172;DHT22;64929;51.178;4.138;2023-07-31T14:45:05;18.40;99.90
76172;DHT22;64929;51.178;4.138;2023-07-31T14:47:32;18.30;99.90
76172;DHT22;64929;51.178;4.138;2023-07-31T14:49:58;18.40;99.90
76172;DHT22;64929;51.178;4.138;2023-07-31T14:52:24;18.50;99.90
76172;DHT22;64929;51.178;4.138;2023-07-31T14:54:50;18.50;99.90
76172;DHT22;64929;51.178;4.138;2023-07-31T14:57:16;18.40;99.90
76172;DHT22;64929;51.178;4.138;2023-07-31T14:59:41;18.60;99.90
76172;DHT22;64929;51.178;4.138;2023-07-31T15:02:09;18.60;99.90
76172;DHT22;64929;51.178;4.138;2023-07-31T15:04:35;18.60;99.90
76172;DHT22;64929;51.178;4.138;2023-07-31T15:07:01;18.50;99.90
76172;DHT22;64929;51.178;4.138;2023-07-31T15:09:27;18.60;99.90
76172;DHT22;64929;51.178;4.138;2023-07-31T15:11:53;18.80;99.90
76172;DHT22;64929;51.178;4.138;2023-07-31T15:14:19;18.70;99.90
76172;DHT22;64929;51.178;4.138;2023-07-31T15:16:45;18.60;99.90
76172;DHT22;64929;51.178;4.138;2023-07-31T15:19:11;18.60;99.90
76172;DHT22;64929;51.178;4.138;2023-07-31T15:21:37;18.50;99.90
76172;DHT22;64929;51.178;4.138;2023-07-31T15:24:03;18.60;99.90
76172;DHT22;64929;51.178;4.138;2023-07-31T15:26:29;18.50;99.90
76172;DHT22;64929;51.178;4.138;2023-07-31T15:29:03;18.40;99.90
76172;DHT22;64929;51.178;4.138;2023-07-31T15:31:34;18.50;99.90
76172;DHT22;64929;51.178;4.138;2023-07-31T15:33:59;18.50;99.90
76172;DHT22;64929;51.178;4.138;2023-07-31T15:36:25;18.50;99.90
76172;DHT22;64929;51.178;4.138;2023-07-31T15:38:51;18.50;99.90
76172;DHT22;64929;51.178;4.138;2023-07-31T15:41:18;18.40;99.90
76172;DHT22;64929;51.178;4.138;2023-07-31T15:43:43;18.40;99.90